Time;durP1;ratioP1;P1;durP2;ratioP2;P2;SDS_P1;SDS_P2;PMS_P1;PMS_P2;Temp;Humidity;BMP_temperature;BMP_pressure;BME280_temperature;BME280_humidity;BME280_pressure;Samples;Min_cycle;Max_cycle;Signal;HPM_P1;HPM_P2
2022/04/05 00:01:15;;;;;;;5.70;5.15;;;10.50;99.90;;;;;;5057060;28;20056;-81
2022/04/05 00:03:41;;;;;;;6.47;4.72;;;10.40;99.90;;;;;;5057002;28;20087;-81
2022/04/05 00:06:06;;;;;;;4.30;3.90;;;10.50;99.90;;;;;;5057048;28;20542;-80
2022/04/05 00:08:32;;;;;;;3.50;3.03;;;10.40;99.90;;;;;;5056869;28;20542;-80
2022/04/05 00:10:58;;;;;;;2.63;2.42;;;10.30;99.90;;;;;;5056416;28;20071;-80
2022/04/05 00:13:23;;;;;;;3.15;2.05;;;10.20;99.90;;;;;;5056643;28;20377;-82
2022/04/05 00:15:49;;;;;;;2.22;1.10;;;10.20;99.90;;;;;;5056596;28;20056;-81
2022/04/05 00:18:14;;;;;;;2.53;0.65;;;10.10;99.90;;;;;;5056961;28;20029;-80
2022/04/05 00:20:40;;;;;;;2.13;0.57;;;10.00;99.90;;;;;;5056307;28;20033;-81
2022/04/05 00:23:06;;;;;;;1.45;0.40;;;9.90;99.90;;;;;;5056881;28;20028;-81
2022/04/05 00:25:31;;;;;;;0.45;0.25;;;9.90;99.90;;;;;;5056745;28;20360;-81
2022/04/05 00:27:57;;;;;;;2.67;0.40;;;9.80;99.90;;;;;;5056405;28;20461;-81
2022/04/05 00:30:23;;;;;;;1.45;0.30;;;9.80;99.90;;;;;;5056785;28;20021;-81
2022/04/05 00:32:49;;;;;;;2.10;0.30;;;9.80;99.90;;;;;;5056497;28;20372;-81
2022/04/05 00:35:14;;;;;;;1.73;0.30;;;9.80;99.90;;;;;;5056220;28;20029;-81
2022/04/05 00:37:40;;;;;;;3.10;0.38;;;9.80;99.90;;;;;;5056627;28;20041;-81
2022/04/05 00:40:07;;;;;;;0.82;0.30;;;9.80;99.90;;;;;;5056332;28;20029;-80
2022/04/05 00:42:34;;;;;;;1.33;0.30;;;9.90;99.90;;;;;;5056152;28;20117;-81
2022/04/05 00:44:59;;;;;;;0.98;0.30;;;9.90;99.90;;;;;;5056144;28;20039;-80
2022/04/05 00:47:26;;;;;;;1.40;0.45;;;9.90;99.90;;;;;;5056252;28;20033;-80
2022/04/05 00:49:53;;;;;;;2.00;0.52;;;9.90;99.90;;;;;;5055958;28;20036;-80
2022/04/05 00:52:21;;;;;;;0.70;0.40;;;9.80;99.90;;;;;;5055817;28;20029;-81
2022/04/05 00:54:48;;;;;;;1.70;0.50;;;9.80;99.90;;;;;;5055881;28;20472;-80
2022/04/05 00:57:17;;;;;;;2.45;0.43;;;9.80;99.90;;;;;;5056162;28;20065;-79
2022/04/05 00:59:48;;;;;;;1.15;0.50;;;9.70;99.90;;;;;;5054408;28;20079;-79
2022/04/05 01:02:21;;;;;;;2.08;0.40;;;9.70;99.90;;;;;;5055898;28;20381;-79
2022/04/05 01:04:48;;;;;;;2.22;0.70;;;9.70;99.90;;;;;;5055829;28;20391;-79
2022/04/05 01:07:16;;;;;;;1.65;0.70;;;9.60;99.90;;;;;;5055608;28;20025;-80
2022/04/05 01:09:42;;;;;;;1.70;0.88;;;9.60;99.90;;;;;;5055698;28;20052;-79
2022/04/05 01:12:10;;;;;;;2.17;0.75;;;9.60;99.90;;;;;;5055861;28;20100;-79
2022/04/05 01:14:36;;;;;;;3.33;0.75;;;9.70;99.90;;;;;;5055853;28;20053;-79
2022/04/05 01:17:06;;;;;;;2.33;0.90;;;9.70;99.90;;;;;;5055599;28;20075;-79
2022/04/05 01:19:33;;;;;;;2.75;0.90;;;9.70;99.90;;;;;;5055300;28;20021;-80
2022/04/05 01:22:00;;;;;;;2.50;0.85;;;9.70;99.90;;;;;;5055390;28;20036;-81
2022/04/05 01:24:26;;;;;;;2.05;1.00;;;9.80;99.90;;;;;;5055604;28;20377;-82
2022/04/05 01:26:57;;;;;;;1.92;0.90;;;9.80;99.90;;;;;;5055562;28;20032;-82
2022/04/05 01:29:25;;;;;;;2.10;0.93;;;9.80;99.90;;;;;;5055290;28;20056;-81
2022/04/05 01:31:58;;;;;;;1.67;0.70;;;9.80;99.90;;;;;;5054910;28;20440;-82
2022/04/05 01:34:28;;;;;;;2.03;0.70;;;9.80;99.90;;;;;;5055084;28;20025;-82
2022/04/05 01:36:56;;;;;;;1.48;0.80;;;9.80;99.90;;;;;;5055363;28;20044;-82
2022/04/05 01:39:24;;;;;;;2.95;0.77;;;9.80;99.90;;;;;;5055080;28;20078;-82
2022/04/05 01:41:55;;;;;;;3.72;0.70;;;9.80;99.90;;;;;;5055314;28;20103;-82
2022/04/05 01:44:21;;;;;;;4.88;0.68;;;9.80;99.90;;;;;;5055138;28;20064;-82
2022/04/05 01:46:47;;;;;;;2.60;0.45;;;9.80;99.90;;;;;;5054867;28;20040;-82
2022/04/05 01:49:13;;;;;;;2.28;0.60;;;9.90;99.90;;;;;;5054968;28;20021;-82
2022/04/05 01:51:39;;;;;;;3.38;0.82;;;9.90;99.90;;;;;;5055184;28;20029;-82
2022/04/05 01:54:06;;;;;;;2.75;1.17;;;9.90;99.90;;;;;;5055188;28;20021;-81
2022/04/05 01:56:42;;;;;;;2.08;0.70;;;9.90;99.90;;;;;;5054965;28;20038;-81
2022/04/05 01:59:08;;;;;;;3.63;0.80;;;9.90;99.90;;;;;;5054602;28;20108;-81
2022/04/05 02:01:33;;;;;;;2.58;0.60;;;9.90;99.90;;;;;;5054614;28;20060;-81
2022/04/05 02:03:59;;;;;;;1.55;0.50;;;9.90;99.90;;;;;;5054816;28;20074;-81
2022/04/05 02:06:25;;;;;;;3.17;0.80;;;9.80;99.90;;;;;;5054732;28;20072;-81
2022/04/05 02:08:51;;;;;;;1.67;1.00;;;9.90;99.90;;;;;;5054549;28;20028;-81
2022/04/05 02:11:16;;;;;;;2.50;0.70;;;9.90;99.90;;;;;;5053729;28;20468;-81
2022/04/05 02:13:42;;;;;;;2.28;0.85;;;9.80;99.90;;;;;;5054576;28;20040;-81
2022/04/05 02:16:08;;;;;;;1.15;0.80;;;9.80;99.90;;;;;;5054292;28;20028;-81
2022/04/05 02:18:36;;;;;;;3.45;0.85;;;9.80;99.90;;;;;;5054647;28;20071;-80
2022/04/05 02:21:02;;;;;;;2.90;0.70;;;9.80;99.90;;;;;;5054525;28;20032;-81
2022/04/05 02:23:27;;;;;;;1.75;0.70;;;9.90;99.90;;;;;;5053917;28;20025;-80
2022/04/05 02:25:53;;;;;;;2.17;0.80;;;9.80;99.90;;;;;;5054761;28;20017;-79
2022/04/05 02:28:19;;;;;;;2.42;0.55;;;9.90;99.90;;;;;;5054185;28;20108;-79
2022/04/05 02:30:44;;;;;;;1.98;0.68;;;9.90;99.90;;;;;;5054174;28;20021;-79
2022/04/05 02:33:10;;;;;;;1.95;0.80;;;9.80;99.90;;;;;;5054119;28;20447;-79
2022/04/05 02:35:37;;;;;;;1.90;0.65;;;9.80;99.90;;;;;;5054263;28;20032;-79
2022/04/05 02:38:03;;;;;;;3.75;1.10;;;9.80;99.90;;;;;;5054121;28;20056;-79
2022/04/05 02:40:29;;;;;;;2.97;0.80;;;9.80;99.90;;;;;;5054086;28;20079;-79
2022/04/05 02:42:56;;;;;;;1.60;0.73;;;9.70;99.90;;;;;;5053537;28;20025;-79
2022/04/05 02:45:22;;;;;;;1.55;0.75;;;9.70;99.90;;;;;;5054217;28;20025;-79
2022/04/05 02:47:48;;;;;;;2.85;0.90;;;9.70;99.90;;;;;;5053997;28;20079;-79
2022/04/05 02:50:17;;;;;;;3.33;0.90;;;9.70;99.90;;;;;;5053970;28;20404;-80
2022/04/05 02:52:47;;;;;;;4.13;1.13;;;9.70;99.90;;;;;;5053967;28;20091;-79
2022/04/05 02:55:14;;;;;;;3.67;0.80;;;9.70;99.90;;;;;;5053643;28;20033;-80
2022/04/05 02:57:40;;;;;;;2.80;0.95;;;9.70;99.90;;;;;;5053359;28;20533;-80
2022/04/05 03:00:08;;;;;;;2.97;1.30;;;9.60;99.90;;;;;;5053900;28;20075;-80
2022/04/05 03:02:34;;;;;;;3.78;0.80;;;9.60;99.90;;;;;;5053842;28;20029;-80
2022/04/05 03:05:07;;;;;;;4.07;1.00;;;9.60;99.90;;;;;;5053793;28;20052;-81
2022/04/05 03:07:37;;;;;;;2.70;1.05;;;9.60;99.90;;;;;;5053317;28;20028;-82
2022/04/05 03:10:08;;;;;;;2.08;1.25;;;9.60;99.90;;;;;;5053210;28;20124;-82
2022/04/05 03:12:35;;;;;;;2.72;1.15;;;9.60;99.90;;;;;;5053371;28;20393;-82
2022/04/05 03:15:01;;;;;;;1.58;1.27;;;9.60;99.90;;;;;;5053715;28;20036;-82
2022/04/05 03:20:48;;;;;;;2.88;1.27;;;9.60;99.90;;;;;;5053642;28;20040;-82
2022/04/05 03:23:14;;;;;;;4.30;1.40;;;9.60;99.90;;;;;;5052776;28;20025;-82
2022/04/05 03:25:39;;;;;;;2.65;1.50;;;9.50;99.90;;;;;;5053319;28;20021;-82
2022/04/05 03:28:05;;;;;;;2.30;1.40;;;9.50;99.90;;;;;;5052969;28;20025;-82
2022/04/05 03:30:31;;;;;;;4.55;1.52;;;9.50;99.90;;;;;;5053370;28;20083;-82
2022/04/05 03:32:57;;;;;;;3.20;1.30;;;9.50;99.90;;;;;;5053158;28;20033;-82
2022/04/05 03:35:23;;;;;;;3.42;1.20;;;9.50;99.90;;;;;;5053054;28;20112;-83
2022/04/05 03:37:48;;;;;;;4.70;1.55;;;9.50;99.90;;;;;;5053147;28;20033;-82
2022/04/05 03:40:14;;;;;;;3.95;1.35;;;9.50;99.90;;;;;;5053370;28;20029;-82
2022/04/05 03:42:40;;;;;;;2.55;1.40;;;9.40;99.90;;;;;;5053343;28;20028;-81
2022/04/05 03:45:06;;;;;;;3.92;1.60;;;9.40;99.90;;;;;;5052982;28;20025;-81
2022/04/05 03:47:31;;;;;;;5.55;1.88;;;9.30;99.90;;;;;;5053268;28;20025;-81
2022/04/05 03:49:57;;;;;;;7.43;2.40;;;9.30;99.90;;;;;;5052908;28;20530;-82
2022/04/05 03:52:23;;;;;;;4.15;1.90;;;9.30;99.90;;;;;;5053267;28;20025;-81
2022/04/05 03:54:49;;;;;;;2.40;1.90;;;9.30;99.90;;;;;;5053056;28;20028;-82
2022/04/05 03:57:15;;;;;;;3.85;1.95;;;9.30;99.90;;;;;;5052974;28;20079;-82
2022/04/05 03:59:40;;;;;;;5.18;2.40;;;9.30;99.90;;;;;;5052970;28;20025;-82
2022/04/05 04:02:06;;;;;;;3.45;2.00;;;9.30;99.90;;;;;;5053039;28;20028;-82
2022/04/05 04:04:32;;;;;;;4.95;2.47;;;9.30;99.90;;;;;;5052732;28;20636;-81
2022/04/05 04:06:57;;;;;;;5.63;2.60;;;9.30;99.90;;;;;;5053179;28;20111;-81
2022/04/05 04:09:23;;;;;;;2.90;2.38;;;9.30;99.90;;;;;;5052813;28;20480;-81
2022/04/05 04:11:49;;;;;;;4.15;2.85;;;9.30;99.90;;;;;;5052609;28;20476;-81
2022/04/05 04:14:16;;;;;;;3.88;2.80;;;9.40;99.90;;;;;;5052846;28;20024;-81
2022/04/05 04:16:41;;;;;;;5.95;2.92;;;9.40;99.90;;;;;;5052636;28;20108;-81
2022/04/05 04:19:07;;;;;;;3.72;2.67;;;9.40;99.90;;;;;;5052828;28;20048;-81
2022/04/05 04:21:34;;;;;;;3.70;2.17;;;9.40;99.90;;;;;;5052727;28;20445;-81
2022/04/05 04:24:00;;;;;;;2.85;2.17;;;9.40;99.90;;;;;;5052478;28;20464;-81
2022/04/05 04:26:25;;;;;;;3.45;2.30;;;9.40;99.90;;;;;;5052823;28;20083;-81
2022/04/05 04:28:55;;;;;;;3.40;2.10;;;9.40;99.90;;;;;;5052944;28;20029;-81
2022/04/05 04:31:20;;;;;;;4.95;2.17;;;9.50;99.90;;;;;;5052559;28;20029;-81
2022/04/05 04:33:46;;;;;;;4.07;2.15;;;9.50;99.90;;;;;;5052816;28;20021;-81
2022/04/05 04:36:12;;;;;;;4.63;2.42;;;9.50;99.90;;;;;;5056102;28;20025;-81
2022/04/05 04:38:37;;;;;;;5.45;2.80;;;9.60;99.90;;;;;;5056362;28;20068;-81
2022/04/05 04:41:03;;;;;;;3.88;2.72;;;9.60;99.90;;;;;;5056104;28;20021;-81
2022/04/05 04:43:28;;;;;;;4.05;3.00;;;9.60;99.90;;;;;;5056478;28;20566;-81
2022/04/05 04:45:54;;;;;;;4.70;2.90;;;9.60;99.90;;;;;;5056353;28;20036;-81
2022/04/05 04:48:22;;;;;;;5.38;3.28;;;9.60;99.90;;;;;;5056383;28;20381;-78
2022/04/05 04:50:48;;;;;;;4.28;3.45;;;9.60;99.90;;;;;;5056256;28;20036;-80
2022/04/05 04:53:14;;;;;;;4.80;3.67;;;9.70;99.90;;;;;;5056093;28;20032;-83
2022/04/05 04:55:39;;;;;;;6.20;4.70;;;9.70;99.90;;;;;;5055954;28;20467;-77
2022/04/05 04:58:05;;;;;;;5.80;4.82;;;9.70;99.90;;;;;;5056130;28;20078;-78
2022/04/05 05:00:31;;;;;;;8.38;5.38;;;9.80;99.90;;;;;;5045999;28;20112;-81
2022/04/05 05:02:57;;;;;;;9.63;6.15;;;9.70;99.90;;;;;;5036000;28;20435;-82
2022/04/05 05:05:23;;;;;;;6.90;5.97;;;9.80;99.90;;;;;;5036029;28;20381;-83
2022/04/05 05:07:50;;;;;;;9.57;6.63;;;9.80;99.90;;;;;;5035768;28;20064;-84
2022/04/05 05:10:18;;;;;;;9.73;6.18;;;9.80;99.90;;;;;;5035747;28;20049;-79
2022/04/05 05:12:44;;;;;;;10.95;6.55;;;9.90;99.90;;;;;;5035909;28;20029;-80
2022/04/05 05:15:16;;;;;;;6.93;5.78;;;9.90;99.90;;;;;;5035505;28;20021;-75
2022/04/05 05:17:43;;;;;;;8.70;6.18;;;9.90;99.90;;;;;;5035776;28;20087;-75
2022/04/05 05:20:09;;;;;;;8.77;5.97;;;9.90;99.90;;;;;;5035177;28;20037;-75
2022/04/05 05:22:35;;;;;;;7.43;6.68;;;9.90;99.90;;;;;;5043182;28;20525;-75
2022/04/05 05:25:02;;;;;;;8.57;6.90;;;9.90;99.90;;;;;;5055374;28;20025;-76
2022/04/05 05:27:28;;;;;;;14.50;6.80;;;9.90;99.90;;;;;;5055076;28;20389;-76
2022/04/05 05:29:54;;;;;;;9.05;6.63;;;10.00;99.90;;;;;;5054797;28;20505;-76
2022/04/05 05:32:20;;;;;;;8.40;7.00;;;9.90;99.90;;;;;;5054666;28;20064;-76
2022/04/05 05:34:45;;;;;;;8.82;6.82;;;10.00;99.90;;;;;;5055148;28;20094;-75
2022/04/05 05:37:11;;;;;;;10.23;7.43;;;10.00;99.90;;;;;;5055152;28;20370;-76
2022/04/05 05:39:37;;;;;;;11.10;7.93;;;10.00;99.90;;;;;;5055088;28;20436;-78
2022/04/05 05:42:04;;;;;;;11.05;8.98;;;10.00;99.90;;;;;;5054616;28;20037;-75
2022/04/05 05:44:31;;;;;;;10.60;8.00;;;10.00;99.90;;;;;;5054932;28;20057;-75
2022/04/05 05:46:56;;;;;;;10.43;7.70;;;10.00;99.90;;;;;;5054210;28;20029;-75
2022/04/05 05:49:22;;;;;;;10.27;8.32;;;10.10;99.90;;;;;;5054818;28;20021;-74
2022/04/05 05:51:48;;;;;;;11.02;8.70;;;10.10;99.90;;;;;;5054251;28;20367;-74
2022/04/05 05:54:14;;;;;;;15.82;9.13;;;10.10;99.90;;;;;;5054505;28;20021;-74
2022/04/05 05:56:39;;;;;;;10.45;9.25;;;10.10;99.90;;;;;;5054465;28;20041;-73
2022/04/05 05:59:05;;;;;;;11.15;9.02;;;10.10;99.90;;;;;;5054209;28;20017;-75
2022/04/05 06:01:31;;;;;;;9.52;8.23;;;10.10;99.90;;;;;;5054569;28;20166;-74
2022/04/05 06:03:56;;;;;;;10.57;7.95;;;10.10;99.90;;;;;;5054345;28;20040;-74
2022/04/05 06:06:22;;;;;;;10.85;8.77;;;10.10;99.90;;;;;;5053829;28;20353;-74
2022/04/05 06:08:48;;;;;;;11.60;9.45;;;10.20;99.90;;;;;;5054346;28;20049;-74
2022/04/05 06:11:13;;;;;;;13.73;9.90;;;10.10;99.90;;;;;;5053830;28;20039;-73
2022/04/05 06:13:39;;;;;;;13.35;9.90;;;10.20;99.90;;;;;;5054425;28;20029;-75
2022/04/05 06:16:08;;;;;;;12.55;10.35;;;10.10;99.90;;;;;;5053781;28;20029;-76
2022/04/05 06:18:37;;;;;;;14.23;11.13;;;10.20;99.90;;;;;;5054006;28;20040;-75
2022/04/05 06:21:03;;;;;;;13.18;11.00;;;10.20;99.90;;;;;;5053911;28;20484;-76
2022/04/05 06:23:28;;;;;;;14.15;11.80;;;10.20;99.90;;;;;;5054168;28;20035;-76
2022/04/05 06:25:54;;;;;;;13.70;11.20;;;10.20;99.90;;;;;;5054551;28;20024;-76
2022/04/05 06:28:19;;;;;;;16.52;12.10;;;10.20;99.90;;;;;;5053688;28;20120;-76
2022/04/05 06:30:46;;;;;;;16.52;12.30;;;10.20;99.90;;;;;;5053667;28;20388;-77
2022/04/05 06:33:21;;;;;;;13.57;11.27;;;10.20;99.90;;;;;;5053987;28;20032;-76
2022/04/05 06:35:50;;;;;;;17.02;12.73;;;10.20;99.90;;;;;;5053988;28;20060;-76
2022/04/05 06:38:16;;;;;;;16.30;12.43;;;10.20;99.90;;;;;;5053811;28;20029;-76
2022/04/05 06:40:43;;;;;;;15.65;11.82;;;10.20;99.90;;;;;;5053438;28;20098;-76
2022/04/05 06:43:12;;;;;;;15.55;11.65;;;10.20;99.90;;;;;;5053817;28;20025;-76
2022/04/05 06:45:38;;;;;;;12.95;10.50;;;10.20;99.90;;;;;;5053788;28;20390;-77
2022/04/05 06:48:06;;;;;;;11.63;10.35;;;10.30;99.90;;;;;;5053597;28;20021;-76
2022/04/05 06:50:35;;;;;;;12.88;10.48;;;10.30;99.90;;;;;;5053222;28;20559;-76
2022/04/05 06:53:05;;;;;;;13.43;11.25;;;10.30;99.90;;;;;;5053404;28;20029;-74
2022/04/05 06:55:31;;;;;;;12.90;10.68;;;10.30;99.90;;;;;;5053471;28;20073;-74
2022/04/05 06:57:57;;;;;;;16.55;11.43;;;10.30;99.90;;;;;;5053163;28;20037;-75
2022/04/05 07:00:24;;;;;;;16.70;11.98;;;10.40;99.90;;;;;;5053621;28;20021;-74
2022/04/05 07:02:51;;;;;;;16.70;11.68;;;10.30;99.90;;;;;;5053396;28;20029;-75
2022/04/05 07:05:17;;;;;;;18.80;12.90;;;10.40;99.90;;;;;;5053278;28;20044;-75
2022/04/05 07:07:43;;;;;;;17.42;12.23;;;10.40;99.90;;;;;;5053034;28;20025;-75
2022/04/05 07:10:11;;;;;;;16.85;12.90;;;10.30;99.90;;;;;;5053046;28;20134;-76
2022/04/05 07:12:37;;;;;;;18.95;13.23;;;10.30;99.90;;;;;;5053179;28;20127;-75
2022/04/05 07:15:05;;;;;;;18.92;11.77;;;10.40;99.90;;;;;;5052898;28;20156;-75
2022/04/05 07:17:30;;;;;;;16.88;11.65;;;10.40;99.90;;;;;;5053035;28;20033;-74
2022/04/05 07:19:56;;;;;;;16.23;12.52;;;10.40;99.90;;;;;;5053221;28;20032;-75
2022/04/05 07:22:22;;;;;;;20.45;12.93;;;10.40;99.90;;;;;;5053057;28;20035;-74
2022/04/05 07:24:47;;;;;;;19.50;11.38;;;10.50;99.90;;;;;;5052738;28;20457;-74
2022/04/05 07:27:13;;;;;;;16.23;11.57;;;10.50;99.90;;;;;;5052911;28;20040;-75
2022/04/05 07:29:40;;;;;;;17.75;10.57;;;10.60;99.90;;;;;;5052786;28;20066;-75
2022/04/05 07:32:06;;;;;;;17.25;11.30;;;10.50;99.90;;;;;;5052477;28;20112;-76
2022/04/05 07:34:32;;;;;;;14.35;10.32;;;10.60;99.90;;;;;;5051782;28;20547;-75
2022/04/05 07:36:58;;;;;;;14.45;9.63;;;10.60;99.90;;;;;;5052004;28;20041;-74
2022/04/05 07:39:24;;;;;;;16.90;9.93;;;10.50;99.90;;;;;;5052662;28;20158;-75
2022/04/05 07:41:50;;;;;;;14.60;9.50;;;10.50;99.90;;;;;;5050802;28;20037;-75
2022/04/05 07:44:16;;;;;;;14.93;10.02;;;10.60;99.90;;;;;;5051527;28;20051;-75
2022/04/05 07:46:42;;;;;;;14.48;9.02;;;10.60;99.90;;;;;;5052876;28;20473;-75
2022/04/05 07:49:08;;;;;;;17.42;9.00;;;10.60;99.90;;;;;;5053040;28;20068;-76
2022/04/05 07:51:34;;;;;;;15.52;8.73;;;10.60;99.90;;;;;;5052611;28;20438;-75
2022/04/05 07:53:59;;;;;;;13.63;9.10;;;10.70;99.90;;;;;;5052439;28;20021;-76
2022/04/05 07:56:25;;;;;;;15.52;9.15;;;10.70;99.90;;;;;;5052506;28;20041;-75
2022/04/05 07:58:50;;;;;;;10.75;8.30;;;10.70;99.90;;;;;;5052467;28;20024;-74
2022/04/05 08:01:16;;;;;;;16.80;8.80;;;10.70;99.90;;;;;;5052802;28;20044;-75
2022/04/05 08:03:42;;;;;;;11.52;7.85;;;10.70;99.90;;;;;;5052490;28;20071;-76
2022/04/05 08:06:08;;;;;;;17.45;8.73;;;10.70;99.90;;;;;;5052653;28;20036;-75
2022/04/05 08:08:34;;;;;;;15.02;8.07;;;10.70;99.90;;;;;;5052550;28;20480;-75
2022/04/05 08:11:00;;;;;;;12.25;7.80;;;10.70;99.90;;;;;;5056228;28;20123;-75
2022/04/05 08:13:28;;;;;;;10.05;7.63;;;10.70;99.90;;;;;;5056712;28;20029;-75
2022/04/05 08:15:55;;;;;;;9.60;7.07;;;10.80;99.90;;;;;;5056622;28;20052;-75
2022/04/05 08:18:21;;;;;;;8.43;6.07;;;10.70;99.90;;;;;;5056269;28;20048;-75
2022/04/05 08:20:47;;;;;;;8.43;6.10;;;10.70;99.90;;;;;;5056589;28;20033;-76
2022/04/05 08:23:13;;;;;;;9.15;6.13;;;10.70;99.90;;;;;;5056634;28;20033;-75
2022/04/05 08:25:39;;;;;;;10.52;6.13;;;10.80;99.90;;;;;;5056529;28;20121;-76
2022/04/05 08:28:05;;;;;;;9.13;6.60;;;10.70;99.90;;;;;;5056319;28;20048;-76
2022/04/05 08:30:31;;;;;;;16.50;7.10;;;10.80;99.90;;;;;;5056307;28;20032;-76
2022/04/05 08:32:57;;;;;;;10.63;6.60;;;10.70;99.90;;;;;;5056188;28;20029;-75
2022/04/05 08:35:23;;;;;;;12.73;6.28;;;10.70;99.90;;;;;;5055817;28;20024;-76
2022/04/05 08:37:52;;;;;;;8.88;6.72;;;10.70;99.90;;;;;;5055833;28;20037;-76
2022/04/05 08:40:19;;;;;;;8.40;6.22;;;10.80;99.90;;;;;;5055765;28;20464;-74
2022/04/05 08:42:50;;;;;;;11.20;7.07;;;10.80;99.90;;;;;;5056015;28;20035;-74
2022/04/05 08:45:18;;;;;;;10.32;6.20;;;10.90;99.90;;;;;;5056063;28;20025;-75
2022/04/05 08:47:50;;;;;;;8.00;5.90;;;10.90;99.90;;;;;;5055697;28;20021;-76
2022/04/05 08:50:21;;;;;;;7.30;6.05;;;10.90;99.90;;;;;;5055685;28;20057;-76
2022/04/05 08:52:47;;;;;;;7.15;5.40;;;10.90;99.90;;;;;;5055855;28;20031;-76
2022/04/05 08:55:14;;;;;;;8.02;5.85;;;10.90;99.90;;;;;;5055983;28;20031;-75
2022/04/05 08:57:40;;;;;;;10.15;6.30;;;11.00;99.90;;;;;;5055637;28;20506;-76
2022/04/05 09:00:08;;;;;;;10.70;6.40;;;11.00;99.90;;;;;;5055628;28;20111;-76
2022/04/05 09:02:34;;;;;;;9.85;5.95;;;11.00;99.90;;;;;;5055892;28;20027;-75
2022/04/05 09:05:00;;;;;;;11.18;6.22;;;11.10;99.90;;;;;;5055524;28;20021;-75
2022/04/05 09:07:33;;;;;;;9.77;5.75;;;11.10;99.90;;;;;;5055551;28;20016;-75
2022/04/05 09:10:13;;;;;;;7.82;5.32;;;11.10;99.90;;;;;;5055507;28;20053;-76
2022/04/05 09:12:47;;;;;;;12.68;6.00;;;11.10;99.90;;;;;;5055142;28;20033;-76
2022/04/05 09:15:18;;;;;;;10.57;6.15;;;11.20;99.90;;;;;;5055228;28;20115;-76
2022/04/05 09:17:46;;;;;;;11.88;6.85;;;11.20;99.90;;;;;;5055262;28;20545;-76
2022/04/05 09:20:13;;;;;;;10.32;6.03;;;11.20;99.90;;;;;;5055025;28;20116;-75
2022/04/05 09:22:39;;;;;;;10.88;6.00;;;11.30;99.90;;;;;;5054647;28;20021;-75
2022/04/05 09:25:06;;;;;;;11.35;6.10;;;11.30;99.90;;;;;;5054992;28;20516;-74
2022/04/05 09:27:53;;;;;;;9.48;5.72;;;11.30;99.90;;;;;;5055171;28;20104;-75
2022/04/05 09:30:27;;;;;;;9.63;5.57;;;11.40;99.90;;;;;;5055450;28;20100;-76
2022/04/05 09:32:54;;;;;;;11.32;6.03;;;11.40;99.90;;;;;;5055300;28;20025;-76
2022/04/05 09:35:21;;;;;;;9.50;5.72;;;11.40;99.90;;;;;;5054655;28;20099;-75
2022/04/05 09:37:47;;;;;;;12.35;5.72;;;11.40;99.90;;;;;;5055137;28;20119;-76
2022/04/05 09:40:23;;;;;;;10.45;5.55;;;11.50;99.90;;;;;;5055146;28;20032;-75
2022/04/05 09:43:09;;;;;;;11.10;6.00;;;11.50;99.90;;;;;;5054798;28;20506;-75
2022/04/05 09:45:53;;;;;;;9.73;5.72;;;11.50;99.90;;;;;;5054739;28;20029;-75
2022/04/05 09:48:21;;;;;;;9.60;5.88;;;11.50;99.90;;;;;;5054510;28;20078;-76
2022/04/05 09:51:06;;;;;;;10.48;6.10;;;11.50;99.90;;;;;;5054844;28;20116;-77
2022/04/05 09:54:00;;;;;;;11.52;6.25;;;11.60;99.90;;;;;;5054757;28;20039;-74
2022/04/05 09:56:39;;;;;;;9.45;4.60;;;11.50;99.90;;;;;;5049678;28;20120;-74
2022/04/05 09:59:18;;;;;;;8.18;5.03;;;11.50;99.90;;;;;;5054595;28;20396;-75
2022/04/05 10:01:45;;;;;;;8.45;4.40;;;11.60;99.90;;;;;;5054722;28;20025;-74
2022/04/05 10:04:14;;;;;;;6.28;4.82;;;11.70;99.90;;;;;;5054325;28;20032;-73
2022/04/05 10:06:44;;;;;;;6.28;4.03;;;11.70;99.90;;;;;;5054284;28;20164;-73
2022/04/05 10:09:11;;;;;;;6.30;3.78;;;11.80;99.90;;;;;;5054321;28;20033;-72
2022/04/05 10:11:40;;;;;;;8.35;4.13;;;11.80;99.90;;;;;;5054392;28;20033;-72
2022/04/05 10:14:07;;;;;;;6.43;4.00;;;11.80;99.90;;;;;;5054343;28;20044;-73
2022/04/05 10:16:34;;;;;;;6.70;3.58;;;11.80;99.90;;;;;;5054239;28;20037;-72
2022/04/05 10:19:03;;;;;;;4.80;3.35;;;11.70;99.90;;;;;;5054192;28;20495;-72
2022/04/05 10:21:31;;;;;;;5.15;3.13;;;11.70;99.90;;;;;;5054152;28;20035;-73
2022/04/05 10:23:57;;;;;;;4.03;3.05;;;11.70;99.90;;;;;;5053770;28;20515;-73
2022/04/05 10:26:29;;;;;;;4.05;3.05;;;11.60;99.90;;;;;;5054204;28;20029;-73
2022/04/05 10:28:58;;;;;;;3.85;3.00;;;11.50;99.90;;;;;;5054357;28;20044;-74
2022/04/05 10:31:43;;;;;;;4.35;3.80;;;11.50;99.90;;;;;;5053962;28;20052;-74
2022/04/05 10:34:27;;;;;;;4.07;3.63;;;11.60;99.90;;;;;;5054249;28;20079;-74
2022/04/05 10:37:09;;;;;;;5.25;3.55;;;11.50;99.90;;;;;;5053924;28;20060;-74
2022/04/05 10:39:35;;;;;;;5.88;4.00;;;11.50;99.90;;;;;;5053589;28;20116;-74
2022/04/05 10:42:12;;;;;;;6.00;4.18;;;11.40;99.90;;;;;;5053812;28;20042;-74
2022/04/05 10:44:41;;;;;;;6.40;4.63;;;11.40;99.90;;;;;;5054008;28;20029;-74
2022/04/05 10:47:08;;;;;;;7.85;5.18;;;11.40;99.90;;;;;;5053751;28;20057;-74
2022/04/05 10:49:39;;;;;;;10.30;5.55;;;11.50;99.90;;;;;;5053344;28;20021;-74
2022/04/05 10:52:18;;;;;;;8.35;5.78;;;11.50;99.90;;;;;;5053511;28;20472;-74
2022/04/05 10:54:49;;;;;;;10.25;6.20;;;11.50;99.90;;;;;;5053304;28;20040;-74
2022/04/05 10:57:30;;;;;;;12.23;6.97;;;11.60;99.90;;;;;;5053474;28;20061;-78
2022/04/05 11:00:16;;;;;;;8.98;6.30;;;11.60;99.90;;;;;;5053547;28;20025;-75
2022/04/05 11:03:00;;;;;;;11.23;6.63;;;11.60;99.90;;;;;;5048975;28;20437;-74
2022/04/05 11:05:43;;;;;;;7.18;6.00;;;11.60;99.90;;;;;;5053250;28;20056;-74
2022/04/05 11:08:14;;;;;;;9.82;6.95;;;11.60;99.90;;;;;;5053308;28;20021;-75
2022/04/05 11:10:40;;;;;;;10.88;6.68;;;11.60;99.90;;;;;;5053116;28;20586;-74
2022/04/05 11:13:34;;;;;;;9.30;7.10;;;11.60;99.90;;;;;;5053150;28;20108;-74
2022/04/05 11:16:03;;;;;;;9.88;6.78;;;11.60;99.90;;;;;;5051735;28;20116;-75
2022/04/05 11:18:33;;;;;;;11.27;6.38;;;11.60;99.90;;;;;;5052374;28;20036;-74
2022/04/05 11:20:59;;;;;;;7.90;6.43;;;11.60;99.90;;;;;;5052481;28;20079;-75
2022/04/05 11:23:49;;;;;;;8.70;5.90;;;11.60;99.90;;;;;;5052661;28;20424;-74
2022/04/05 11:26:24;;;;;;;8.88;7.18;;;11.60;99.90;;;;;;5052794;28;20028;-79
2022/04/05 11:28:50;;;;;;;12.73;6.35;;;11.70;99.90;;;;;;5052703;28;20029;-76
2022/04/05 11:31:31;;;;;;;11.85;6.60;;;11.70;99.90;;;;;;5052544;28;20028;-76
2022/04/05 11:33:56;;;;;;;8.85;6.43;;;11.70;99.90;;;;;;5053355;28;20029;-75
2022/04/05 11:36:25;;;;;;;8.65;5.85;;;11.60;99.90;;;;;;5052760;28;20048;-76
2022/04/05 11:38:56;;;;;;;9.57;6.30;;;11.60;99.90;;;;;;5053009;28;20033;-78
2022/04/05 11:41:30;;;;;;;9.18;6.15;;;11.70;99.90;;;;;;5053104;28;20021;-81
2022/04/05 11:44:01;;;;;;;10.27;5.28;;;11.70;99.90;;;;;;5052197;28;20028;-79
2022/04/05 11:46:30;;;;;;;12.32;6.50;;;11.70;99.90;;;;;;5052647;28;20055;-77
2022/04/05 11:49:02;;;;;;;8.25;6.10;;;11.70;99.90;;;;;;5052785;28;20024;-79
2022/04/05 11:51:30;;;;;;;8.52;5.85;;;11.80;99.90;;;;;;5053111;28;20025;-78
2022/04/05 11:54:07;;;;;;;10.23;6.25;;;11.80;99.90;;;;;;5053119;28;20044;-81
2022/04/05 11:56:36;;;;;;;11.95;5.97;;;11.80;99.90;;;;;;5052652;28;20033;-84
2022/04/05 11:59:05;;;;;;;9.18;5.30;;;11.80;99.90;;;;;;5052863;28;20025;-89
2022/04/05 12:01:36;;;;;;;9.68;5.63;;;11.90;99.90;;;;;;5052565;28;20053;-88
2022/04/05 12:04:07;;;;;;;9.95;5.97;;;11.90;99.90;;;;;;5052859;28;20560;-86
2022/04/05 12:06:35;;;;;;;10.05;5.25;;;11.90;99.90;;;;;;5053344;28;20111;-87
2022/04/05 12:09:04;;;;;;;9.05;5.63;;;11.90;99.90;;;;;;5052338;28;20040;-85
2022/04/05 12:11:31;;;;;;;8.70;5.85;;;11.90;99.90;;;;;;5052106;28;20037;-84
2022/04/05 12:14:00;;;;;;;9.80;5.82;;;12.00;99.90;;;;;;5052766;28;20029;-83
2022/04/05 12:16:28;;;;;;;10.20;6.47;;;12.00;99.90;;;;;;5052319;28;20040;-83
2022/04/05 12:18:58;;;;;;;12.35;6.40;;;12.00;99.90;;;;;;5051243;28;20025;-83
2022/04/05 12:21:24;;;;;;;11.35;5.88;;;12.00;99.90;;;;;;5051613;28;20021;-83
2022/04/05 12:23:51;;;;;;;9.63;6.75;;;12.10;99.90;;;;;;5051144;28;20533;-84
2022/04/05 12:26:25;;;;;;;8.00;5.40;;;12.20;99.90;;;;;;5051857;28;20036;-82
2022/04/05 12:28:57;;;;;;;7.78;5.00;;;12.20;99.90;;;;;;5052270;28;20476;-83
2022/04/05 12:31:28;;;;;;;13.10;5.73;;;12.20;99.90;;;;;;5052040;28;20021;-82
2022/04/05 12:34:05;;;;;;;10.85;5.88;;;12.20;99.90;;;;;;5052037;28;20357;-82
2022/04/05 12:36:34;;;;;;;9.75;5.20;;;12.30;99.90;;;;;;5052523;28;20040;-83
2022/04/05 12:39:07;;;;;;;10.63;5.55;;;12.30;99.90;;;;;;5052240;28;20357;-83
2022/04/05 12:41:40;;;;;;;12.57;6.00;;;12.30;99.90;;;;;;5051859;28;20122;-83
2022/04/05 12:44:13;;;;;;;7.07;4.90;;;12.30;99.90;;;;;;5052217;28;20463;-83
2022/04/05 12:46:54;;;;;;;6.93;4.88;;;12.40;99.90;;;;;;5052287;28;20028;-83
2022/04/05 12:49:49;;;;;;;8.40;5.00;;;12.30;99.90;;;;;;5052427;28;20058;-83
2022/04/05 12:52:23;;;;;;;8.95;5.68;;;12.30;99.90;;;;;;5052404;28;20029;-83
2022/04/05 12:55:25;;;;;;;5.85;4.30;;;12.30;99.90;;;;;;5052841;28;20158;-83